Aeroporto :
LOGIN :

Iscrizione | Disclaimer

   EN    FR    IT 

 










Sommario :    VFR   VFR Marginale   IFR   IFR Intensivo   IFR Molto Intensivo
Visibilità : 
Base nubi : 
>= 8 km
>= 3000ft
5 / 8 km
1000 / 3000 ft
1500m / 5 km
500 / 1000 ft
800 / 1500m
200 / 500 ft
< 800m
< 200 ft
Simboli :   Temporali  Nebbia  Neve Forte  Precipitazioni Forti  Vento > 20 kt
SIGMETs :   Varie  Temporali  Ghiacco  Turbolenza  Onda orograficha  Ceneri Vulcaniche







- Altitudine del aeroporto : 290 ft
- Codice IATA : LAI
- Carte del aeroporto


LFRO - Lannion

ULTIMO METAR :
  • 181100Z AUTO 13012KT CAVOK 05/01 Q1014 TEMPO 2000 DZRA BKN003 BECMG 18015G25KT

METARs OBSOLETI :
  • 181030Z AUTO 13011KT 9999 BKN044 OVC064 05/00 Q1014 TEMPO 2000 DZRA BKN003 BECMG 18015G25KT
  • 181000Z AUTO 14011KT 9999 BKN048 OVC062 04/M00 Q1015 TEMPO 2000 DZRA BKN003 BECMG 18015G25KT
  • 180930Z AUTO 14011KT 120V180 CAVOK 03/M01 Q1015 TEMPO 2000 DZRA BKN003 BECMG 18015G25KT
  • 180900Z AUTO 14012KT CAVOK 03/M01 Q1015 BECMG 18015G25KT 4000 RA BKN012
  • 180830Z AUTO 14010KT CAVOK 03/M01 Q1015 BECMG 18015G25KT 4000 RA BKN012
  • 180800Z AUTO 13010KT CAVOK 02/M02 Q1015 BECMG 18015G25KT 4000 RA BKN012

TAF TAF LFRO
Valido dal 18 a 06 ore il 19 a 06 ore UTC


180500Z 1806/1906 14008KT CAVOK
BECMG 1808/1811 18015G25KT 4000 RA BKN012
TEMPO 1811/1820 2000 DZRA BKN003
BECMG 1820/1822 9999 NSW BKN015
TEMPO 1823/1906 4000 SHRA SCT012CB BKN015
Nessun NOTAM noto per questo aeroporto.



MetMap, La meteo Aeronautica in un colpo d'occhio ! - Copyright ORBIFLY Dicembre 2007 - Disclaimer

ORBIFLY MET'MAP TEAM :

Programmazione e sviluppo : Alexandra Zaïnal
Concezione e sviluppo : Baudouin d'Aumeries
Co-Programmazione e sviluppo : Marc-Olivier Méhu
Supporto tecnico e logistico : Manuel Goepfert
Aiuto per la traduzione : Arnaldo La Scala

Contatto : metmap@orbifly.com




FONTI E CREDITI :

   NOAA